»·PEaware :: N328AP KPHX-KLAX

N328AP :: KPHX-KLAX

FLIGHT INFORMATION

Flight Status: Arrived
Operator: Privately registered:
United States
More flights under this callsign
Pilot: Adam P. (15512)
Aircraft: BOMBARDIER BD-100 CHALLENGER 300
(CL30)
More flights by this aircraft type
Origin: KPHX Phoenix Sky Harbor Intl
United States
Destination: KLAX Los Angeles Intl
United States
More flights between these airports :: More routes between these airports
Route: IZZZO6 MESSI ESTWD HLYWD1
File this flight plan on PilotEdge
Remarks:
Altitude:
(Current/Filed)
30,000ft
Speed:
(Current/Filed)
468kts
Departed: 03-Oct-17 12:19 PM
Arrived: 03-Oct-17 01:21 PM
Distance/Time
Traveled:
320nm/1:02
Distance/Time
To Go:
Arrived

Flight Plot

Page will automatically refresh every two minutes.

Flight plan parsing failed; only flown route is shown


Map Options




Map Legend


Flown Route
Filed Route
Departure Airport
Arrival Airport
Navaid (VOR, NDB)
Fix

Horizontal Profiles

Position Reports

Time Latitude Longitude Heading Altitude Ground
Speed
03-Oct-17 12:05 33.425767 -112.019517 269 1115ft 0kts
03-Oct-17 12:06 33.425767 -112.019517 269 1115ft 0kts
03-Oct-17 12:07 33.425767 -112.019517 269 1115ft 0kts
03-Oct-17 12:08 33.425767 -112.019517 269 1115ft 0kts
03-Oct-17 12:09 33.425767 -112.019517 269 1115ft 0kts
03-Oct-17 12:10 33.425767 -112.019517 269 1115ft 0kts
03-Oct-17 12:11 33.425767 -112.019517 269 1115ft 0kts
03-Oct-17 12:12 33.425767 -112.019517 269 1115ft 0kts
03-Oct-17 12:13 33.425767 -112.019517 269 1115ft 0kts
03-Oct-17 12:14 33.425767 -112.019517 269 1115ft 0kts
03-Oct-17 12:15 33.425767 -112.019517 269 1115ft 0kts
03-Oct-17 12:16 33.425767 -112.019517 269 1115ft 0kts
03-Oct-17 12:17 33.425767 -112.019517 269 1115ft 0kts
03-Oct-17 12:18 33.425767 -112.019517 269 1115ft 0kts
03-Oct-17 12:19 33.425766 -112.019604 269 1115ft 2kts
03-Oct-17 12:20 33.427471 -112.021125 353 1115ft 16kts
03-Oct-17 12:21 33.427751 -112.026550 280 1112ft 13kts
03-Oct-17 12:22 33.428509 -112.026934 2 1112ft 14kts
03-Oct-17 12:23 33.428848 -111.998912 94 1850ft 176kts
03-Oct-17 12:24 33.431716 -111.925621 89 5178ft 264kts
03-Oct-17 12:25 33.403805 -111.855993 163 10906ft 250kts
03-Oct-17 12:26 33.358613 -111.897828 266 15826ft 265kts
03-Oct-17 12:27 33.368672 -112.002624 273 17653ft 372kts
03-Oct-17 12:28 33.384440 -112.124607 273 21837ft 381kts
03-Oct-17 12:29 33.401791 -112.251455 273 25121ft 395kts
03-Oct-17 12:30 33.419922 -112.382649 273 27930ft 408kts
03-Oct-17 12:31 33.438337 -112.516594 273 29915ft 423kts
03-Oct-17 12:32 33.450256 -112.659514 266 29913ft 433kts
03-Oct-17 12:33 33.457338 -112.801395 282 29891ft 445kts
03-Oct-17 12:34 33.502342 -112.939597 285 29918ft 448kts
03-Oct-17 12:35 33.549698 -113.077267 285 29917ft 449kts
03-Oct-17 12:36 33.597614 -113.215511 286 29917ft 450kts
03-Oct-17 12:37 33.645184 -113.352995 286 29915ft 449kts
03-Oct-17 12:38 33.692618 -113.490628 286 29913ft 450kts
03-Oct-17 12:39 33.739959 -113.628575 285 29894ft 449kts
03-Oct-17 12:40 33.786505 -113.764792 285 29869ft 449kts
03-Oct-17 12:41 33.833626 -113.903191 285 29868ft 449kts
03-Oct-17 12:42 33.880418 -114.041182 285 29868ft 448kts
03-Oct-17 12:43 33.915983 -114.182312 276 29865ft 440kts
03-Oct-17 12:44 33.940793 -114.325655 275 29864ft 440kts
03-Oct-17 12:45 33.964996 -114.468962 275 29863ft 440kts
03-Oct-17 12:46 33.988902 -114.612161 275 29864ft 440kts
03-Oct-17 12:47 34.012331 -114.753685 275 29870ft 439kts
03-Oct-17 12:48 34.035905 -114.896565 275 29867ft 440kts
03-Oct-17 12:49 34.059460 -115.040756 275 29867ft 440kts
03-Oct-17 12:50 34.082819 -115.184478 275 29866ft 440kts
03-Oct-17 12:51 34.105573 -115.325391 275 29893ft 439kts
03-Oct-17 12:52 34.128601 -115.469127 275 29936ft 439kts
03-Oct-17 12:53 34.151482 -115.613240 275 29935ft 439kts
03-Oct-17 12:54 34.155538 -115.753847 260 29944ft 429kts
03-Oct-17 12:55 34.143180 -115.896331 259 29942ft 428kts
03-Oct-17 12:56 34.129614 -116.038393 259 29941ft 428kts
03-Oct-17 12:57 34.115737 -116.179961 259 29938ft 428kts
03-Oct-17 12:58 34.101395 -116.322432 259 29928ft 428kts
03-Oct-17 12:59 34.086747 -116.459735 258 29910ft 428kts
03-Oct-17 13:00 34.071788 -116.600758 259 29874ft 417kts
03-Oct-17 13:01 34.057882 -116.733730 257 27228ft 385kts
03-Oct-17 13:02 34.042776 -116.852408 256 25388ft 364kts
03-Oct-17 13:03 34.031205 -116.971127 259 23748ft 367kts
03-Oct-17 13:04 34.018285 -117.091948 260 21718ft 370kts
03-Oct-17 13:05 34.004256 -117.214419 260 19109ft 377kts
03-Oct-17 13:06 33.990917 -117.328515 260 18198ft 291kts
03-Oct-17 13:07 33.980202 -117.419885 260 16041ft 275kts
03-Oct-17 13:08 34.010347 -117.484107 343 13695ft 301kts
03-Oct-17 13:09 34.047883 -117.543992 251 11000ft 259kts
03-Oct-17 13:10 34.025165 -117.620528 250 10011ft 248kts
03-Oct-17 13:11 34.004880 -117.698761 262 9545ft 246kts
03-Oct-17 13:12 33.997846 -117.772099 262 8090ft 206kts
03-Oct-17 13:13 33.990759 -117.845696 259 6110ft 230kts
03-Oct-17 13:14 33.983585 -117.919407 259 5301ft 214kts
03-Oct-17 13:15 33.977002 -117.986775 259 3983ft 178kts
03-Oct-17 13:16 33.971701 -118.039967 258 4003ft 179kts
03-Oct-17 13:17 33.965657 -118.101052 258 4001ft 187kts
03-Oct-17 13:18 33.960235 -118.155496 260 3819ft 149kts
03-Oct-17 13:19 33.955722 -118.200837 260 3070ft 134kts
03-Oct-17 13:20 33.951334 -118.245264 260 2357ft 135kts
03-Oct-17 13:21 33.946866 -118.289631 260 1620ft 128kts
03-Oct-17 13:22 33.943314 -118.324587 260 1063ft 116kts
03-Oct-17 13:23 33.939317 -118.362841 260 475ft 119kts
03-Oct-17 13:24 33.935701 -118.398704 263 112ft 60kts
03-Oct-17 13:25 33.934224 -118.407181 170 123ft 5kts
03-Oct-17 13:26 33.934042 -118.407147 172 123ft 0kts
03-Oct-17 13:27 33.933901 -118.404534 81 121ft 8kts
03-Oct-17 13:28 33.934346 -118.400122 84 115ft 11kts
03-Oct-17 13:29 33.933479 -118.399108 177 113ft 9kts
03-Oct-17 13:30 33.933508 -118.398724 33 112ft 0kts

Navigation Log

Ident Type
Flight plan parsing failed, navigation log unavailable